Time;durP1;ratioP1;P1;durP2;ratioP2;P2;SDS_P1;SDS_P2;PMS_P1;PMS_P2;Temp;Humidity;BMP_temperature;BMP_pressure;BME280_temperature;BME280_humidity;BME280_pressure;Samples;Min_cycle;Max_cycle;Signal;HPM_P1;HPM_P2
2022/08/09 00:01:06;;;;;;;5.80;2.30;;;;;;;16.98;66.68;99144.36;106259;1283;137683;-74
2022/08/09 00:03:33;;;;;;;6.60;2.20;;;;;;;16.97;66.59;99140.50;105840;1282;22560;-73
2022/08/09 00:06:00;;;;;;;4.00;2.20;;;;;;;16.95;66.51;99141.73;105864;1283;137123;-74
2022/08/09 00:08:27;;;;;;;3.60;1.90;;;;;;;16.92;66.51;99138.17;105758;1284;25468;-73
2022/08/09 00:10:54;;;;;;;3.60;2.00;;;;;;;16.88;66.67;99139.06;105852;1284;137061;-73
2022/08/09 00:13:35;;;;;;;2.90;1.90;;;;;;;16.85;66.69;99139.20;106119;1282;24288;-73
2022/08/09 00:16:02;;;;;;;5.60;2.00;;;;;;;16.81;66.50;99139.11;105833;1283;22548;-73
2022/08/09 00:18:30;;;;;;;3.30;2.00;;;;;;;16.78;66.38;99141.13;105922;1283;137170;-73
2022/08/09 00:20:58;;;;;;;6.40;2.30;;;;;;;16.75;66.49;99141.62;106134;1283;22585;-74
2022/08/09 00:23:25;;;;;;;4.60;2.00;;;;;;;16.75;66.61;99141.29;105801;1283;138174;-74
2022/08/09 00:25:51;;;;;;;4.40;2.00;;;;;;;16.74;66.40;99140.89;105934;1283;22541;-73
2022/08/09 00:28:18;;;;;;;4.60;1.90;;;;;;;16.73;66.47;99140.98;105887;1283;22626;-73
2022/08/09 00:30:59;;;;;;;4.50;2.20;;;;;;;16.73;66.54;99143.92;105702;1283;137238;-73
2022/08/09 00:33:26;;;;;;;4.40;2.20;;;;;;;16.71;66.72;99142.42;105955;1280;22559;-73
2022/08/09 00:35:54;;;;;;;4.70;2.20;;;;;;;16.70;66.62;99144.06;106014;1282;137908;-73
2022/08/09 00:38:21;;;;;;;4.90;2.20;;;;;;;16.68;66.46;99140.88;105950;1282;25251;-73
2022/08/09 00:41:02;;;;;;;4.30;2.10;;;;;;;16.65;66.72;99144.88;106204;1282;137223;-73
2022/08/09 00:43:30;;;;;;;2.70;1.70;;;;;;;16.64;66.66;99145.91;106171;1280;22318;-73
2022/08/09 00:45:57;;;;;;;7.60;2.20;;;;;;;16.61;66.55;99149.48;105893;1280;23637;-73
2022/08/09 00:48:24;;;;;;;2.90;1.80;;;;;;;16.59;66.71;99148.36;105713;1280;138013;-73
2022/08/09 00:51:08;;;;;;;3.70;1.90;;;;;;;16.58;66.80;99148.25;106137;1280;24233;-73
2022/08/09 00:53:50;;;;;;;5.80;2.20;;;;;;;16.57;66.84;99151.05;105659;1281;137160;-73
2022/08/09 00:56:16;;;;;;;8.30;2.60;;;;;;;16.55;66.67;99149.27;105701;1282;22633;-73
2022/08/09 00:58:43;;;;;;;4.40;2.00;;;;;;;16.54;66.86;99149.44;105844;1282;22547;-73
2022/08/09 01:01:36;;;;;;;3.40;2.00;;;;;;;16.53;66.93;99151.30;105939;1282;137378;-73
2022/08/09 01:04:12;;;;;;;11.70;2.10;;;;;;;16.49;66.87;99151.84;105803;1280;24382;-73
2022/08/09 01:06:47;;;;;;;9.20;2.10;;;;;;;16.46;67.07;99153.30;106053;1283;137506;-73
2022/08/09 01:09:28;;;;;;;3.10;1.60;;;;;;;16.42;67.23;99153.16;106138;1283;24374;-73
2022/08/09 01:12:23;;;;;;;9.60;2.20;;;;;;;16.38;67.02;99154.20;106206;1280;137647;-73
2022/08/09 01:15:10;;;;;;;3.50;1.80;;;;;;;16.37;67.25;99157.15;105785;1280;25109;-73
2022/08/09 01:17:48;;;;;;;5.90;1.90;;;;;;;16.38;67.29;99155.39;105759;1283;137691;-73
2022/08/09 01:20:31;;;;;;;4.20;2.00;;;;;;;16.36;67.16;99155.73;106497;1281;22700;-74
2022/08/09 01:23:03;;;;;;;3.80;1.70;;;;;;;16.35;67.35;99156.42;106164;1283;137444;-74
2022/08/09 01:25:42;;;;;;;3.80;2.20;;;;;;;16.33;67.29;99155.53;106537;1280;24843;-73
2022/08/09 01:28:11;;;;;;;5.40;2.30;;;;;;;16.33;67.37;99155.27;105770;1280;25625;-75
2022/08/09 01:30:41;;;;;;;4.30;1.90;;;;;;;16.32;67.49;99156.74;106318;1280;137153;-75
2022/08/09 01:33:10;;;;;;;3.80;2.20;;;;;;;16.29;67.29;99158.75;105848;1280;22554;-75
2022/08/09 01:35:56;;;;;;;4.30;2.30;;;;;;;16.27;67.38;99161.82;105871;1280;137584;-75
2022/08/09 01:38:49;;;;;;;3.50;2.00;;;;;;;16.23;67.20;99162.61;105712;1282;22538;-74
2022/08/09 01:41:21;;;;;;;3.30;1.80;;;;;;;16.18;67.40;99160.55;105589;1282;137993;-74
2022/08/09 01:43:52;;;;;;;5.70;1.90;;;;;;;16.17;67.46;99160.92;105897;1282;22714;-74
2022/08/09 01:46:37;;;;;;;4.20;2.00;;;;;;;16.14;67.56;99161.17;106160;1280;25242;-74
2022/08/09 01:49:16;;;;;;;4.90;2.00;;;;;;;16.14;67.84;99161.07;105873;1280;137137;-74
2022/08/09 01:51:55;;;;;;;3.90;1.90;;;;;;;16.15;68.16;99161.64;105995;1280;24390;-74
2022/08/09 01:54:43;;;;;;;5.40;2.20;;;;;;;16.14;67.86;99161.52;106005;1283;137200;-74
2022/08/09 01:57:22;;;;;;;5.40;2.00;;;;;;;16.12;67.75;99163.37;105753;1282;30588;-74
2022/08/09 01:59:52;;;;;;;6.30;2.00;;;;;;;16.12;68.22;99164.41;105878;1282;137270;-74
2022/08/09 02:02:24;;;;;;;7.40;2.30;;;;;;;16.12;68.19;99163.98;105903;1282;25398;-74
2022/08/09 02:04:54;;;;;;;6.00;2.00;;;;;;;16.13;68.42;99165.52;105778;1282;137867;-74
2022/08/09 02:07:25;;;;;;;4.40;2.40;;;;;;;16.14;68.18;99162.73;106315;1280;25242;-74
2022/08/09 02:09:58;;;;;;;4.00;1.90;;;;;;;16.15;68.30;99165.10;105937;1280;25405;-74
2022/08/09 02:12:40;;;;;;;6.80;2.20;;;;;;;16.16;68.47;99165.54;105878;1283;137749;-74
2022/08/09 02:15:09;;;;;;;4.50;1.70;;;;;;;16.15;68.41;99165.31;105929;1280;22543;-74
2022/08/09 02:17:52;;;;;;;3.70;2.00;;;;;;;16.13;68.65;99169.04;106013;1280;137393;-74
2022/08/09 02:20:44;;;;;;;4.20;2.40;;;;;;;16.12;68.69;99165.02;105947;1283;23203;-74
2022/08/09 02:23:25;;;;;;;3.70;1.90;;;;;;;16.12;68.58;99167.88;105837;1280;138429;-74
2022/08/09 02:25:55;;;;;;;4.80;2.10;;;;;;;16.13;68.62;99166.90;105659;1280;22073;-74
2022/08/09 02:28:34;;;;;;;3.30;1.80;;;;;;;16.13;68.18;99165.27;105837;1282;22588;-74
2022/08/09 02:31:21;;;;;;;5.40;2.00;;;;;;;16.14;68.26;99168.10;105364;1282;137604;-73
2022/08/09 02:33:53;;;;;;;5.30;2.00;;;;;;;16.15;68.58;99167.23;105208;1283;25390;-73
2022/08/09 02:36:28;;;;;;;4.00;2.00;;;;;;;16.15;68.31;99163.83;105365;1282;137766;-73
2022/08/09 02:38:58;;;;;;;4.40;2.00;;;;;;;16.13;68.25;99166.34;105813;1280;25254;-74
2022/08/09 02:41:35;;;;;;;4.10;2.00;;;;;;;16.12;68.46;99167.23;105786;1280;137241;-73
2022/08/09 02:44:22;;;;;;;4.20;2.20;;;;;;;16.11;68.45;99168.31;106073;1281;24650;-74
2022/08/09 02:46:53;;;;;;;6.20;1.80;;;;;;;16.12;68.57;99166.40;106464;1280;138042;-73
2022/08/09 02:49:20;;;;;;;5.20;1.90;;;;;;;16.13;68.57;99171.69;105824;1282;25577;-73
2022/08/09 02:51:53;;;;;;;7.10;2.20;;;;;;;16.16;68.67;99171.48;106115;1282;22566;-73
2022/08/09 02:54:22;;;;;;;4.00;2.10;;;;;;;16.16;68.66;99175.05;105895;1282;137434;-73
2022/08/09 02:56:51;;;;;;;2.90;1.90;;;;;;;16.18;68.61;99175.29;105908;1283;25298;-73
2022/08/09 02:59:20;;;;;;;5.10;2.20;;;;;;;16.19;69.06;99176.83;105713;1281;137566;-74
2022/08/09 03:01:48;;;;;;;4.20;2.40;;;;;;;16.18;68.63;99179.13;105862;1283;22554;-74
2022/08/09 03:04:17;;;;;;;4.20;2.20;;;;;;;16.17;68.57;99177.91;105658;1281;24300;-73
2022/08/09 03:06:45;;;;;;;4.10;2.30;;;;;;;16.16;68.62;99181.70;106182;1281;137305;-74
2022/08/09 03:09:27;;;;;;;5.50;2.00;;;;;;;16.16;68.83;99181.75;105518;1283;22631;-75
2022/08/09 03:11:55;;;;;;;7.10;1.80;;;;;;;16.15;68.30;99183.33;105598;1282;137621;-74
2022/08/09 03:14:24;;;;;;;3.90;2.10;;;;;;;16.14;68.41;99184.91;106010;1282;23193;-76
2022/08/09 03:16:53;;;;;;;5.10;2.60;;;;;;;16.15;68.46;99185.31;105800;1282;137326;-73
2022/08/09 03:19:21;;;;;;;4.80;2.20;;;;;;;16.14;68.55;99185.48;105805;1280;24268;-76
2022/08/09 03:21:50;;;;;;;5.30;2.50;;;;;;;16.14;68.42;99186.52;106238;1280;22546;-74
2022/08/09 03:24:18;;;;;;;7.00;2.50;;;;;;;16.13;68.50;99189.14;105788;1280;137273;-75
2022/08/09 03:26:59;;;;;;;6.10;2.00;;;;;;;16.11;68.68;99181.98;105843;1283;23941;-74
2022/08/09 03:29:27;;;;;;;7.70;2.40;;;;;;;16.08;68.42;99183.50;105866;1283;137737;-74
2022/08/09 03:32:09;;;;;;;5.00;2.10;;;;;;;16.06;68.21;99179.38;105667;1282;23457;-73
2022/08/09 03:34:50;;;;;;;4.20;2.10;;;;;;;16.03;68.05;99180.79;105887;1282;138239;-73
2022/08/09 03:37:17;;;;;;;3.90;2.20;;;;;;;16.01;68.22;99181.64;106102;1281;25477;-73
2022/08/09 03:39:44;;;;;;;6.70;2.30;;;;;;;16.01;68.17;99180.16;106186;1281;24388;-74
2022/08/09 03:42:11;;;;;;;4.80;2.90;;;;;;;15.99;67.97;99178.88;105745;1280;137262;-73
2022/08/09 03:44:38;;;;;;;3.60;2.30;;;;;;;15.98;67.77;99175.30;106046;1280;22706;-76
2022/08/09 03:47:05;;;;;;;5.30;2.20;;;;;;;15.94;67.69;99176.14;105739;1280;137602;-73
2022/08/09 03:49:35;;;;;;;5.40;3.20;;;;;;;15.91;67.60;99175.68;106059;1280;22597;-73
2022/08/09 03:52:04;;;;;;;4.70;2.30;;;;;;;15.84;67.70;99172.73;105776;1283;23125;-73
2022/08/09 03:54:35;;;;;;;5.90;2.20;;;;;;;15.78;67.94;99176.63;106031;1282;137935;-73
2022/08/09 03:57:05;;;;;;;8.10;2.40;;;;;;;15.72;68.22;99176.10;105560;1282;22574;-73
2022/08/09 03:59:33;;;;;;;2.50;1.90;;;;;;;15.66;68.00;99178.62;105729;1280;137796;-73
2022/08/09 04:02:00;;;;;;;3.90;2.10;;;;;;;15.62;68.34;99180.35;105748;1280;22538;-73
2022/08/09 04:04:28;;;;;;;4.70;2.70;;;;;;;15.63;68.56;99183.37;105785;1281;22538;-74
2022/08/09 04:06:56;;;;;;;5.60;2.20;;;;;;;15.63;68.63;99183.44;105906;1281;137444;-75
2022/08/09 04:09:24;;;;;;;6.40;2.20;;;;;;;15.61;68.39;99181.82;105806;1281;22654;-76
2022/08/09 04:12:12;;;;;;;3.80;2.20;;;;;;;15.58;68.30;99184.42;105859;1281;137248;-76
2022/08/09 04:14:40;;;;;;;3.90;2.20;;;;;;;15.56;68.42;99186.56;105810;1281;25251;-75
2022/08/09 04:17:08;;;;;;;3.60;2.20;;;;;;;15.56;68.39;99190.50;105521;1283;137503;-78
2022/08/09 04:19:34;;;;;;;5.70;2.30;;;;;;;15.57;68.64;99190.40;105816;1280;22550;-76
2022/08/09 04:22:01;;;;;;;5.90;2.20;;;;;;;15.59;68.68;99189.86;105916;1281;25242;-75
2022/08/09 04:24:30;;;;;;;6.80;2.50;;;;;;;15.63;68.54;99189.63;105783;1280;137771;-75
2022/08/09 04:26:57;;;;;;;5.30;2.10;;;;;;;15.67;68.62;99194.29;105882;1280;25314;-75
2022/08/09 04:29:24;;;;;;;5.00;2.20;;;;;;;15.72;68.48;99194.38;105781;1280;137757;-75
2022/08/09 04:31:52;;;;;;;6.30;2.40;;;;;;;15.76;68.11;99186.83;105827;1281;22544;-75
2022/08/09 04:34:33;;;;;;;4.70;2.10;;;;;;;15.80;67.96;99185.77;106048;1281;24448;-72
2022/08/09 04:37:00;;;;;;;6.40;2.40;;;;;;;15.81;67.78;99188.19;105808;1281;137956;-74
2022/08/09 04:39:28;;;;;;;4.90;2.30;;;;;;;15.81;67.73;99189.06;106162;1281;24281;-73
2022/08/09 04:41:55;;;;;;;5.50;2.00;;;;;;;15.83;67.63;99189.95;106035;1280;137596;-74
2022/08/09 04:44:21;;;;;;;4.70;2.50;;;;;;;15.87;67.57;99188.51;105918;1281;22818;-76
2022/08/09 04:46:48;;;;;;;7.00;2.50;;;;;;;15.88;67.51;99191.15;106242;1281;137903;-75
2022/08/09 04:49:15;;;;;;;6.00;2.40;;;;;;;15.90;67.68;99193.96;106341;1280;24815;-76
2022/08/09 04:51:42;;;;;;;4.40;2.30;;;;;;;15.90;67.77;99189.86;106188;1281;22614;-74
2022/08/09 04:54:10;;;;;;;7.20;2.20;;;;;;;15.92;67.90;99193.11;105863;1281;137189;-74
2022/08/09 04:56:36;;;;;;;4.50;2.00;;;;;;;15.93;67.81;99192.02;105834;1281;22595;-74
2022/08/09 04:59:03;;;;;;;4.20;2.40;;;;;;;15.93;67.70;99192.02;105801;1281;137483;-74
2022/08/09 05:01:44;;;;;;;8.40;2.10;;;;;;;15.93;67.74;99192.73;105884;1280;25318;-74
2022/08/09 05:04:11;;;;;;;5.20;2.30;;;;;;;15.95;67.28;99190.98;106164;1280;22565;-75
2022/08/09 05:06:38;;;;;;;5.40;2.20;;;;;;;15.96;67.46;99192.44;106212;1281;138243;-73
2022/08/09 05:09:05;;;;;;;4.20;1.80;;;;;;;15.97;67.40;99193.32;105954;1281;25379;-73
2022/08/09 05:11:32;;;;;;;5.90;2.50;;;;;;;16.00;67.57;99197.95;105944;1282;137712;-72
2022/08/09 05:13:59;;;;;;;4.60;1.50;;;;;;;16.04;67.37;99199.97;105846;1281;22575;-73
2022/08/09 05:16:26;;;;;;;4.00;1.90;;;;;;;16.07;67.10;99195.14;106091;1281;22537;-73
2022/08/09 05:18:53;;;;;;;5.10;1.70;;;;;;;16.12;67.32;99204.48;105883;1281;137283;-73
2022/08/09 05:21:20;;;;;;;8.20;2.30;;;;;;;16.15;67.44;99202.41;106157;1281;23266;-73
2022/08/09 05:24:01;;;;;;;5.30;2.50;;;;;;;16.17;67.27;99202.54;106296;1281;138018;-73
2022/08/09 05:26:29;;;;;;;8.40;2.40;;;;;;;16.21;67.45;99205.42;105956;1280;22702;-73
2022/08/09 05:28:56;;;;;;;4.80;2.10;;;;;;;16.23;67.23;99205.27;106089;1281;137576;-73
2022/08/09 05:31:23;;;;;;;9.50;2.40;;;;;;;16.27;67.30;99205.75;106227;1281;22566;-74
2022/08/09 05:33:50;;;;;;;6.80;2.00;;;;;;;16.33;67.31;99203.30;106371;1280;22608;-73
2022/08/09 05:36:17;;;;;;;6.30;2.10;;;;;;;16.41;67.03;99209.45;105740;1281;138604;-73
2022/08/09 05:38:58;;;;;;;7.10;2.70;;;;;;;16.51;66.83;99207.48;105876;1281;23058;-73
2022/08/09 05:41:25;;;;;;;5.80;2.10;;;;;;;16.61;66.90;99210.19;106747;1280;137193;-74
2022/08/09 05:43:52;;;;;;;4.70;1.80;;;;;;;16.73;66.76;99211.74;105911;1281;23308;-73
2022/08/09 05:46:19;;;;;;;6.60;2.00;;;;;;;16.85;66.58;99210.23;106104;1281;22556;-73
2022/08/09 05:48:46;;;;;;;2.80;1.80;;;;;;;16.99;66.23;99215.97;105894;1280;137743;-75
2022/08/09 05:51:13;;;;;;;4.20;1.80;;;;;;;17.10;66.24;99217.77;106224;1280;25323;-73
2022/08/09 05:53:54;;;;;;;5.40;2.20;;;;;;;17.22;65.97;99217.77;105975;1284;137737;-73
2022/08/09 05:56:21;;;;;;;4.10;1.50;;;;;;;17.34;65.70;99220.01;106029;1283;22698;-73
2022/08/09 05:58:49;;;;;;;2.60;1.50;;;;;;;17.44;65.55;99222.67;106398;1284;137283;-73
2022/08/09 06:01:16;;;;;;;6.40;1.80;;;;;;;17.55;65.50;99220.29;105946;1281;24290;-73
2022/08/09 06:03:43;;;;;;;7.00;1.70;;;;;;;17.61;64.87;99215.38;106376;1280;22659;-73
2022/08/09 06:06:11;;;;;;;3.70;1.70;;;;;;;17.68;64.56;99221.41;106595;1281;137803;-73
2022/08/09 06:08:38;;;;;;;4.00;1.60;;;;;;;17.74;64.31;99216.73;106902;1279;22609;-73
2022/08/09 06:11:07;;;;;;;2.90;1.50;;;;;;;17.80;64.14;99217.08;106380;1281;137630;-73
2022/08/09 06:13:34;;;;;;;4.90;1.60;;;;;;;17.85;64.02;99218.59;106582;1281;22610;-73
2022/08/09 06:16:02;;;;;;;6.50;1.70;;;;;;;17.88;63.73;99218.15;106265;1281;22548;-73
2022/08/09 06:18:33;;;;;;;6.00;1.60;;;;;;;17.91;63.66;99216.50;105745;1284;137600;-73
2022/08/09 06:21:14;;;;;;;3.20;1.70;;;;;;;17.94;63.83;99219.64;106107;1280;25338;-73
2022/08/09 06:23:41;;;;;;;4.00;1.60;;;;;;;17.98;63.62;99216.83;106354;1279;137639;-73
2022/08/09 06:26:08;;;;;;;4.90;1.30;;;;;;;18.04;63.51;99220.75;106341;1280;22875;-73
2022/08/09 06:28:35;;;;;;;5.90;1.70;;;;;;;18.10;63.50;99217.99;106359;1281;23199;-73
2022/08/09 06:31:02;;;;;;;5.60;1.50;;;;;;;18.16;63.30;99212.52;106186;1283;137537;-73
2022/08/09 06:33:29;;;;;;;3.70;1.70;;;;;;;18.21;63.06;99214.58;106110;1284;22531;-73
2022/08/09 06:35:56;;;;;;;3.70;1.80;;;;;;;18.26;62.47;99217.48;105636;1284;137690;-73
2022/08/09 06:38:23;;;;;;;6.10;1.50;;;;;;;18.33;62.50;99218.64;106032;1284;22859;-73
2022/08/09 06:40:51;;;;;;;5.20;1.50;;;;;;;18.41;62.54;99222.16;105759;1281;138277;-72
2022/08/09 06:43:18;;;;;;;11.40;2.10;;;;;;;18.47;62.21;99221.44;105937;1281;25485;-72
2022/08/09 06:45:45;;;;;;;5.80;1.50;;;;;;;18.54;61.92;99223.80;105975;1281;22560;-72
2022/08/09 06:48:12;;;;;;;6.10;1.80;;;;;;;18.62;61.73;99220.74;106097;1281;137605;-72
2022/08/09 06:50:53;;;;;;;4.00;1.60;;;;;;;18.70;61.09;99222.82;105984;1281;22444;-72
2022/08/09 06:53:20;;;;;;;7.10;1.50;;;;;;;18.78;61.11;99223.79;106072;1281;138078;-72
2022/08/09 06:55:47;;;;;;;3.40;1.60;;;;;;;18.87;61.06;99224.97;105852;1282;22547;-73
2022/08/09 06:58:14;;;;;;;6.70;1.70;;;;;;;18.94;60.73;99227.20;105720;1281;24230;-73
2022/08/09 07:00:41;;;;;;;2.30;1.30;;;;;;;19.03;60.73;99226.23;105836;1281;137824;-73
2022/08/09 07:03:08;;;;;;;3.60;1.60;;;;;;;19.11;60.12;99223.33;105877;1281;25439;-73
2022/08/09 07:05:35;;;;;;;3.50;1.40;;;;;;;19.21;60.00;99226.00;105972;1281;138549;-73
2022/08/09 07:08:03;;;;;;;1.20;1.00;;;;;;;19.30;59.96;99223.06;106111;1281;22562;-72
2022/08/09 07:10:31;;;;;;;3.80;1.30;;;;;;;19.39;59.75;99222.53;106010;1280;25381;-72
2022/08/09 07:12:58;;;;;;;3.50;1.50;;;;;;;19.47;59.07;99227.89;105987;1283;137187;-73
2022/08/09 07:15:39;;;;;;;4.90;1.50;;;;;;;19.57;58.94;99229.45;105807;1281;25341;-72
2022/08/09 07:18:06;;;;;;;4.40;1.70;;;;;;;19.66;59.21;99231.83;106021;1280;138129;-72
2022/08/09 07:20:33;;;;;;;3.90;1.10;;;;;;;19.76;58.44;99229.95;105799;1280;22584;-73
2022/08/09 07:23:00;;;;;;;2.60;1.00;;;;;;;19.86;57.49;99231.11;105648;1282;137966;-73
2022/08/09 07:25:41;;;;;;;1.90;1.00;;;;;;;19.96;57.35;99232.96;106159;1281;22651;-73
2022/08/09 07:28:22;;;;;;;2.10;1.10;;;;;;;20.07;57.17;99236.81;105836;1282;24503;-73
2022/08/09 07:30:49;;;;;;;6.00;1.20;;;;;;;20.19;57.25;99239.66;105946;1281;137107;-73
2022/08/09 07:33:16;;;;;;;2.40;0.90;;;;;;;20.29;56.64;99236.86;105816;1280;22697;-73
2022/08/09 07:35:42;;;;;;;4.20;1.00;;;;;;;20.39;55.69;99237.48;105737;1280;137629;-73
2022/08/09 07:38:23;;;;;;;1.80;0.80;;;;;;;20.49;55.03;99239.44;105907;1280;22564;-73
2022/08/09 07:40:53;;;;;;;5.30;0.90;;;;;;;20.58;54.06;99239.96;105678;1281;137928;-72
2022/08/09 07:43:34;;;;;;;2.40;0.90;;;;;;;20.67;53.45;99241.05;105580;1281;24375;-73
2022/08/09 07:46:01;;;;;;;3.70;0.80;;;;;;;20.75;53.37;99242.48;106020;1281;23269;-73
2022/08/09 07:48:42;;;;;;;1.80;1.00;;;;;;;20.86;53.05;99241.92;105671;1280;137208;-73
2022/08/09 07:51:09;;;;;;;3.00;1.00;;;;;;;20.96;52.78;99244.84;105898;1280;22567;-73
2022/08/09 07:53:51;;;;;;;2.50;0.80;;;;;;;21.08;52.45;99242.88;107187;1280;137253;-73
2022/08/09 07:56:18;;;;;;;5.40;1.20;;;;;;;21.20;52.39;99242.73;106468;1281;22686;-72
2022/08/09 07:58:45;;;;;;;3.00;1.10;;;;;;;21.32;51.75;99241.64;106035;1281;22573;-74
2022/08/09 08:01:12;;;;;;;4.00;1.50;;;;;;;21.45;51.35;99244.70;106036;1281;136924;-73
2022/08/09 08:03:40;;;;;;;1.50;1.00;;;;;;;21.56;50.92;99243.45;106267;1280;25927;-72
2022/08/09 08:06:07;;;;;;;1.30;1.00;;;;;;;21.65;50.62;99246.42;106712;1277;137260;-72
2022/08/09 08:08:34;;;;;;;4.80;0.80;;;;;;;21.76;50.68;99243.66;106501;1280;24309;-72
2022/08/09 08:11:02;;;;;;;2.50;0.90;;;;;;;21.89;49.93;99244.20;106456;1280;137953;-73
2022/08/09 08:13:29;;;;;;;2.50;0.80;;;;;;;21.99;48.96;99242.86;106502;1280;22595;-72
2022/08/09 08:15:56;;;;;;;2.70;1.00;;;;;;;22.08;48.42;99242.61;106835;1279;25362;-72
2022/08/09 08:18:23;;;;;;;2.60;0.80;;;;;;;22.22;47.77;99242.57;106228;1281;137309;-72
2022/08/09 08:20:51;;;;;;;3.20;1.00;;;;;;;22.32;46.95;99243.05;106743;1281;25298;-71
2022/08/09 08:23:19;;;;;;;1.40;0.90;;;;;;;22.43;46.36;99241.86;105644;1280;1785262;-72
2022/08/09 08:25:47;;;;;;;;;;;;;;;22.50;45.93;99241.94;106144;1280;25389;-72
2022/08/09 08:28:15;;;;;;;1.50;0.50;;;;;;;22.57;45.31;99240.77;106333;1279;22732;-71
2022/08/09 08:30:56;;;;;;;4.30;0.70;;;;;;;22.68;45.40;99240.23;106485;1281;137103;-72
2022/08/09 08:33:23;;;;;;;1.90;0.60;;;;;;;22.83;45.37;99246.56;105949;1280;24513;-72
2022/08/09 08:35:51;;;;;;;3.40;0.80;;;;;;;22.98;44.85;99245.34;106130;1281;137396;-72
2022/08/09 08:38:32;;;;;;;2.90;0.80;;;;;;;23.11;45.22;99247.66;106814;1281;25489;-72
2022/08/09 08:41:01;;;;;;;5.00;0.80;;;;;;;23.27;45.28;99247.28;106086;1281;137353;-72
2022/08/09 08:43:29;;;;;;;1.70;0.90;;;;;;;23.44;44.70;99249.41;106673;1280;22591;-72
2022/08/09 08:46:04;;;;;;;1.60;0.50;;;;;;;23.60;44.52;99248.50;106124;1280;23526;-72
2022/08/09 08:48:35;;;;;;;2.40;0.50;;;;;;;23.78;43.74;99250.67;106098;1280;137273;-72
2022/08/09 08:51:16;;;;;;;4.90;0.80;;;;;;;23.98;43.07;99250.11;105940;1280;24263;-72
2022/08/09 08:53:58;;;;;;;1.70;0.80;;;;;;;24.15;42.72;99251.49;105683;1283;137384;-72
2022/08/09 08:56:25;;;;;;;3.40;0.90;;;;;;;24.30;42.37;99245.45;106003;1281;22715;-72
2022/08/09 08:58:53;;;;;;;4.90;0.80;;;;;;;24.44;41.72;99241.98;105827;1281;137217;-71
2022/08/09 09:01:20;;;;;;;5.90;1.30;;;;;;;24.59;41.31;99245.06;105766;1282;25235;-72
2022/08/09 09:04:08;;;;;;;3.40;0.80;;;;;;;24.73;41.36;99248.48;105912;1281;22557;-71
2022/08/09 09:06:50;;;;;;;;;;;;;;;24.85;40.62;99246.64;105815;1283;137144;-72
2022/08/09 09:09:32;;;;;;;2.50;0.80;;;;;;;24.69;40.49;99247.80;106022;1281;24506;-72
2022/08/09 09:12:01;;;;;;;2.80;1.00;;;;;;;24.50;40.06;99247.68;106060;1280;137421;-72
2022/08/09 09:14:31;;;;;;;2.50;0.60;;;;;;;24.56;40.72;99244.80;105716;1281;25494;-72
2022/08/09 09:17:13;;;;;;;2.50;0.70;;;;;;;24.66;40.52;99239.48;105215;1281;137437;-72
2022/08/09 09:19:54;;;;;;;2.20;0.80;;;;;;;24.84;40.74;99245.49;105581;1283;22599;-73
2022/08/09 09:22:21;;;;;;;1.50;0.80;;;;;;;24.93;40.59;99239.75;105636;1282;25164;-72
2022/08/09 09:24:53;;;;;;;2.50;1.00;;;;;;;25.07;40.36;99243.20;105905;1280;137941;-73
2022/08/09 09:27:34;;;;;;;2.60;0.80;;;;;;;25.27;39.92;99244.71;105858;1282;22562;-73
2022/08/09 09:30:12;;;;;;;2.50;0.70;;;;;;;25.42;39.57;99238.04;105930;1281;137235;-73
2022/08/09 09:33:10;;;;;;;2.90;1.00;;;;;;;25.41;38.87;99243.41;105789;1281;22583;-73
2022/08/09 09:35:56;;;;;;;2.80;0.80;;;;;;;25.44;39.27;99244.36;105934;1281;137209;-74
2022/08/09 09:38:40;;;;;;;6.40;1.00;;;;;;;25.57;39.13;99244.60;106239;1281;22544;-74
2022/08/09 09:41:25;;;;;;;2.00;0.80;;;;;;;25.82;39.29;99240.00;105864;1281;137724;-73
2022/08/09 09:43:58;;;;;;;1.80;0.70;;;;;;;26.15;38.51;99240.75;106330;1282;22599;-72
2022/08/09 09:46:29;;;;;;;4.20;0.90;;;;;;;26.29;38.07;99246.87;106252;1281;22576;-72
2022/08/09 09:49:01;;;;;;;1.60;0.90;;;;;;;26.55;38.29;99240.91;105577;1280;137549;-72
2022/08/09 09:51:29;;;;;;;5.50;0.90;;;;;;;26.67;37.25;99240.67;106070;1281;22710;-72
2022/08/09 09:54:11;;;;;;;3.70;0.80;;;;;;;26.48;37.16;99245.86;106002;1281;137597;-72
2022/08/09 09:56:43;;;;;;;2.00;0.70;;;;;;;26.30;37.38;99245.77;106135;1281;25359;-73
2022/08/09 09:59:12;;;;;;;4.50;0.90;;;;;;;26.14;36.94;99243.90;105921;1283;137513;-73
2022/08/09 10:01:45;;;;;;;2.70;0.70;;;;;;;25.90;37.32;99241.81;106416;1281;22602;-73
2022/08/09 10:04:26;;;;;;;1.80;0.80;;;;;;;25.79;37.39;99238.68;105732;1280;22719;-74
2022/08/09 10:07:25;;;;;;;1.00;0.60;;;;;;;25.77;37.92;99241.36;105917;1280;136855;-73
2022/08/09 10:09:55;;;;;;;1.90;0.70;;;;;;;25.99;38.18;99242.98;106069;1283;24240;-72
2022/08/09 10:12:25;;;;;;;1.00;0.70;;;;;;;26.15;38.18;99244.02;105644;1281;137202;-72
2022/08/09 10:15:04;;;;;;;2.20;0.70;;;;;;;26.30;37.69;99242.60;106349;1280;24228;-72
2022/08/09 10:17:48;;;;;;;3.40;0.80;;;;;;;26.52;37.50;99237.99;105960;1280;137343;-73
2022/08/09 10:20:21;;;;;;;3.40;0.70;;;;;;;26.72;37.71;99232.17;106000;1280;22569;-72
2022/08/09 10:22:53;;;;;;;2.30;0.90;;;;;;;26.94;36.86;99232.63;105873;1280;137317;-73
2022/08/09 10:25:34;;;;;;;1.50;0.60;;;;;;;27.13;36.05;99227.23;106143;1280;22579;-72
2022/08/09 10:28:02;;;;;;;1.70;0.60;;;;;;;27.36;35.77;99228.13;106036;1280;25426;-72
2022/08/09 10:30:29;;;;;;;2.40;0.70;;;;;;;27.54;34.95;99225.08;105923;1280;137253;-73
2022/08/09 10:32:57;;;;;;;0.70;0.50;;;;;;;27.44;35.06;99225.48;105976;1280;22585;-73
2022/08/09 10:35:25;;;;;;;0.90;0.60;;;;;;;27.37;35.21;99228.58;105624;1280;137652;-73
2022/08/09 10:37:52;;;;;;;1.30;0.70;;;;;;;27.15;35.16;99224.00;106336;1280;22613;-73
2022/08/09 10:40:20;;;;;;;2.50;0.80;;;;;;;26.85;35.04;99226.00;105931;1281;25375;-72
2022/08/09 10:42:47;;;;;;;5.80;0.80;;;;;;;26.41;34.64;99223.39;105643;1283;137299;-72
2022/08/09 10:45:30;;;;;;;1.60;0.80;;;;;;;25.93;35.40;99227.05;105547;1281;22723;-72
2022/08/09 10:48:11;;;;;;;2.90;0.70;;;;;;;25.58;36.01;99231.18;105747;1283;137504;-73
2022/08/09 10:53:59;;;;;;;2.60;0.80;;;;;;;25.01;37.10;99232.16;105785;1280;137113;-72
2022/08/09 10:56:33;;;;;;;1.70;0.70;;;;;;;24.86;37.99;99229.96;105584;1281;23499;-72
2022/08/09 10:59:27;;;;;;;4.60;0.90;;;;;;;24.74;38.33;99230.01;105301;1282;137242;-73
2022/08/09 11:01:54;;;;;;;2.00;0.80;;;;;;;24.71;38.53;99223.58;105945;1281;23154;-73
2022/08/09 11:04:30;;;;;;;1.30;0.50;;;;;;;24.91;38.91;99221.29;105867;1282;22701;-72
2022/08/09 11:06:58;;;;;;;3.80;0.70;;;;;;;24.94;38.66;99222.88;105610;1280;137861;-72
2022/08/09 11:09:46;;;;;;;2.00;0.70;;;;;;;25.26;38.41;99222.24;105867;1281;23042;-73
2022/08/09 11:12:23;;;;;;;2.30;0.50;;;;;;;25.73;38.17;99214.58;105848;1281;139953;-73
2022/08/09 11:14:55;;;;;;;2.80;0.70;;;;;;;26.19;38.03;99213.09;105968;1280;23009;-73
2022/08/09 11:17:26;;;;;;;4.30;0.90;;;;;;;26.53;36.83;99208.27;105850;1280;137406;-72
2022/08/09 11:20:08;;;;;;;3.90;0.60;;;;;;;26.51;35.99;99212.16;106392;1280;22656;-73
2022/08/09 11:22:45;;;;;;;0.90;0.70;;;;;;;26.33;36.45;99215.52;107066;1280;24259;-73
2022/08/09 11:25:14;;;;;;;1.70;0.70;;;;;;;26.20;36.43;99216.95;106070;1281;137182;-73
2022/08/09 11:28:08;;;;;;;1.70;0.80;;;;;;;26.04;36.06;99216.02;106525;1281;22579;-73
2022/08/09 11:30:36;;;;;;;1.90;0.50;;;;;;;25.84;37.04;99213.58;106085;1281;137416;-73
2022/08/09 11:33:15;;;;;;;2.40;1.00;;;;;;;25.71;36.86;99212.02;106747;1280;22557;-72
2022/08/09 11:35:45;;;;;;;1.50;0.70;;;;;;;25.58;37.10;99209.20;106685;1280;137496;-73
2022/08/09 11:38:32;;;;;;;1.80;0.80;;;;;;;25.52;37.29;99208.23;106582;1280;22610;-73
2022/08/09 11:41:13;;;;;;;2.00;0.80;;;;;;;25.79;37.27;99200.34;106051;1280;137474;-73
2022/08/09 11:43:51;;;;;;;1.20;0.70;;;;;;;26.22;37.10;99197.73;106309;1280;25251;-72
2022/08/09 11:46:18;;;;;;;2.60;0.70;;;;;;;26.68;35.61;99187.94;106395;1280;22846;-72
2022/08/09 11:48:54;;;;;;;1.10;0.50;;;;;;;27.10;34.76;99185.91;106128;1280;137786;-72